YGK weather

Kingston Norman Rogers Airport
Kingston, Ontario, Canada

Public forecast

Using degrees Celsius for public forecast. Weather courtesy of forecast.io.

Current aviation weather report (METAR) for Kingston Norman Rogers Airport

Retrieved 2019/10/22 00:00 UTC (15 minutes ago):

CYGK 220000Z 07010KT 15SM SCT240 13/08 A3002 RMK CI4 SLP171

Aviation forecast (TAF) for Kingston Norman Rogers Airport

Retrieved 2019/10/21 20:00 UTC (4 hours ago):

TAF CYGK 211938Z 2120/2203 07012KT P6SM FEW160 BKN250 BECMG 2200/2202 09010G20KT RMK NXT FCST WILL BE ISSUED AT 221145Z